Time;durP1;ratioP1;P1;durP2;ratioP2;P2;SDS_P1;SDS_P2;PMS_P1;PMS_P2;Temp;Humidity;BMP_temperature;BMP_pressure;BME280_temperature;BME280_humidity;BME280_pressure;Samples;Min_cycle;Max_cycle;Signal;HPM_P1;HPM_P2
2021/08/09 00:01:13;;;;;;;7.17;6.57;;;;;;;26.94;39.86;166042.31;835070;71;30267;-76
2021/08/09 00:16:16;;;;;;;7.33;6.80;;;;;;;26.83;40.09;94583.31;827519;71;32697;-76
2021/08/09 00:31:27;;;;;;;6.00;5.50;;;;;;;;;;833978;71;32752;-76
2021/08/09 00:46:20;;;;;;;6.53;6.10;;;;;;;26.71;40.44;94577.19;828402;71;29687;-76
2021/08/09 01:01:17;;;;;;;6.23;5.73;;;;;;;26.66;40.30;94570.08;829009;71;29775;-77
2021/08/09 01:16:15;;;;;;;6.97;6.07;;;;;;;;;;828592;71;30277;-75
2021/08/09 01:31:35;;;;;;;6.27;5.77;;;;;;;26.55;100.00;123554.15;829354;71;32698;-77
2021/08/09 01:46:20;;;;;;;6.53;6.00;;;;;;;;;;827571;71;32639;-75
2021/08/09 02:01:24;;;;;;;6.37;5.93;;;;;;;26.31;41.31;94595.88;834237;71;30255;-76
2021/08/09 02:16:40;;;;;;;6.40;5.90;;;;;;;26.28;41.30;94605.50;828241;71;30593;-75
2021/08/09 02:31:27;;;;;;;6.80;6.30;;;;;;;26.31;41.37;94607.99;828237;71;32668;-77
2021/08/09 02:46:17;;;;;;;6.40;5.90;;;;;;;26.14;41.82;94621.66;834588;71;29651;-77
2021/08/09 03:16:09;;;;;;;7.10;6.30;;;;;;;26.18;41.67;94642.59;828306;71;30223;-74
2021/08/09 03:31:14;;;;;;;7.20;6.50;;;;;;;25.99;42.43;94645.06;827564;71;33048;-76
2021/08/09 03:46:10;;;;;;;7.33;6.60;;;;;;;25.74;42.59;94645.02;828277;71;30116;-75
2021/08/09 04:01:08;;;;;;;7.00;6.43;;;;;;;25.40;42.65;94658.73;828584;71;29827;-74
2021/08/09 04:16:13;;;;;;;7.50;6.90;;;;;;;25.61;42.87;94662.08;829403;71;32723;-77
2021/08/09 04:31:10;;;;;;;7.33;6.73;;;;;;;25.53;43.47;94655.91;834279;71;30292;-76
2021/08/09 04:46:14;;;;;;;7.87;7.27;;;;;;;25.72;43.14;94670.92;827707;71;32719;-77
2021/08/09 05:01:43;;;;;;;8.23;7.53;;;;;;;25.30;45.02;94697.08;833961;71;32806;-78
2021/08/09 05:16:27;;;;;;;10.10;9.07;;;;;;;25.58;45.79;94704.48;827685;71;33502;-75
2021/08/09 05:31:24;;;;;;;9.17;8.40;;;;;;;26.48;43.21;94704.11;816857;71;32279;-78
2021/08/09 05:47:00;;;;;;;7.97;7.37;;;;;;;;;;809518;72;33260;-78
2021/08/09 06:01:21;;;;;;;7.63;6.87;;;;;;;26.82;41.43;94720.45;827552;71;32750;-78
2021/08/09 06:16:21;;;;;;;6.97;6.27;;;;;;;;;;827671;71;33145;-75
2021/08/09 06:31:15;;;;;;;7.43;6.73;;;;;;;28.53;37.06;94706.84;823676;71;33708;-76
2021/08/09 06:46:22;;;;;;;7.30;6.60;;;;;;;29.33;36.30;94711.69;828630;71;29949;-77
2021/08/09 07:01:52;;;;;;;6.87;6.20;;;;;;;29.94;34.83;94706.14;773753;75;33264;-77
2021/08/09 07:16:18;;;;;;;7.03;6.53;;;;;;;31.00;34.19;94712.28;828388;71;29837;-80
2021/08/09 07:31:16;;;;;;;7.70;7.03;;;;;;;31.62;32.52;94718.13;833982;71;30275;-78
2021/08/09 07:46:19;;;;;;;9.30;7.97;;;;;;;31.13;33.31;94718.04;827480;71;32712;-77
2021/08/09 08:01:09;;;;;;;8.63;7.73;;;;;;;31.83;32.55;94731.83;821767;71;29710;-75
2021/08/09 08:02:14;;;;;;;8.23;7.63;;;;;;;31.80;32.31;94734.80;807225;73;26924;-78
2021/08/09 08:16:28;;;;;;;8.63;7.20;;;;;;;31.79;32.24;94732.50;835300;71;32765;-74
2021/08/09 08:31:26;;;;;;;8.40;7.70;;;;;;;33.00;31.06;94724.91;834356;71;32754;-76
2021/08/09 08:46:36;;;;;;;9.00;8.30;;;;;;;34.23;29.48;94725.09;828165;71;29997;-76
2021/08/09 09:16:15;;;;;;;9.97;9.23;;;;;;;35.81;27.20;94715.73;828173;71;30082;-77
2021/08/09 09:31:13;;;;;;;10.00;9.23;;;;;;;36.23;26.57;94717.48;828169;71;30247;-77
2021/08/09 09:46:22;;;;;;;9.90;9.10;;;;;;;36.73;26.43;94711.28;827534;71;32764;-76
2021/08/09 10:01:11;;;;;;;10.37;9.47;;;;;;;37.03;25.57;94698.70;816047;70;32017;-78
2021/08/09 10:16:14;;;;;;;10.83;9.83;;;;;;;37.54;24.74;94674.78;828064;71;30252;-77
2021/08/09 10:31:31;;;;;;;11.20;10.20;;;;;;;37.73;24.06;94670.66;823067;71;29655;-76
2021/08/09 10:46:37;;;;;;;10.50;9.53;;;;;;;38.23;23.71;94663.63;821631;71;32199;-75
2021/08/09 11:01:17;;;;;;;10.07;9.30;;;;;;;38.36;23.76;94667.52;822768;71;32169;-78
2021/08/09 11:16:35;;;;;;;9.57;8.77;;;;;;;38.44;23.43;94661.08;828466;71;28336;-76
2021/08/09 11:31:17;;;;;;;9.70;8.80;;;;;;;38.37;22.67;94662.19;820620;71;27762;-78
2021/08/09 11:46:18;;;;;;;8.53;7.70;;;;;;;38.27;22.61;94664.22;820917;71;28768;-76
2021/08/09 12:01:36;;;;;;;8.70;8.00;;;;;;;38.18;22.29;94645.67;828427;71;28216;-75
2021/08/09 12:16:17;;;;;;;7.43;6.93;;;;;;;38.06;22.25;94646.03;820973;71;30890;-75
2021/08/09 12:31:45;;;;;;;6.93;6.37;;;;;;;37.97;22.33;94633.73;821621;71;27564;-79
2021/08/09 12:46:20;;;;;;;5.60;5.13;;;;;;;37.84;21.92;94617.51;826737;71;28390;-78
2021/08/09 13:01:19;;;;;;;3.80;3.50;;;;;;;37.69;21.02;94609.17;833836;71;28710;-77
2021/08/09 13:16:19;;;;;;;5.37;4.97;;;;;;;37.53;21.33;94600.68;828087;71;27704;-76
2021/08/09 13:31:34;;;;;;;5.33;4.83;;;;;;;37.27;21.57;94604.42;833863;71;30871;-79
2021/08/09 13:46:24;;;;;;;4.10;3.87;;;;;;;37.03;20.54;94600.18;827275;71;30718;-78
2021/08/09 14:01:16;;;;;;;4.03;3.77;;;;;;;36.84;21.27;94601.56;827637;71;30764;-81
2021/08/09 14:16:24;;;;;;;4.00;3.70;;;;;;;36.61;22.09;94596.05;834989;71;28224;-76
2021/08/09 14:46:36;;;;;;;8.30;7.50;;;;;;;35.85;25.27;94591.50;829974;71;28276;-78
2021/08/09 15:16:10;;;;;;;7.50;6.50;;;;;;;34.89;26.26;94584.88;828489;71;29778;-76
2021/08/09 15:31:15;;;;;;;6.90;6.40;;;;;;;34.71;26.64;94584.91;828162;71;33214;-76
2021/08/09 15:46:20;;;;;;;5.73;5.33;;;;;;;34.57;26.06;94590.80;833951;71;33210;-77
2021/08/09 16:01:08;;;;;;;6.20;5.60;;;;;;;34.26;26.28;94592.05;828120;71;30201;-77
2021/08/09 16:16:08;;;;;;;6.23;5.73;;;;;;;33.94;26.35;94592.45;828276;71;29881;-76
2021/08/09 16:31:10;;;;;;;6.57;6.07;;;;;;;33.52;27.24;94590.59;829335;71;30119;-79
2021/08/09 16:46:08;;;;;;;6.93;6.23;;;;;;;33.08;27.77;94585.43;833908;71;29447;-76
2021/08/09 17:01:15;;;;;;;7.43;6.77;;;;;;;32.76;28.48;94608.81;823729;71;32870;-79
2021/08/09 17:16:13;;;;;;;9.57;8.43;;;;;;;32.32;29.23;94613.78;820296;71;32899;-77
2021/08/09 17:31:08;;;;;;;23.50;15.90;;;;;;;31.99;30.51;94627.34;828158;71;29820;-75
2021/08/09 17:46:09;;;;;;;11.40;10.00;;;;;;;31.56;31.83;94642.47;828220;71;30279;-74
2021/08/09 18:01:09;;;;;;;8.97;8.10;;;;;;;31.24;32.72;94667.66;834164;71;30100;-80
2021/08/09 18:16:08;;;;;;;8.23;7.47;;;;;;;30.87;33.43;94674.91;821778;71;29525;-74
2021/08/09 18:31:18;;;;;;;8.67;7.87;;;;;;;30.51;35.11;94686.95;820402;71;32810;-75
2021/08/09 18:46:15;;;;;;;8.60;7.70;;;;;;;30.16;36.89;94694.42;820941;71;33312;-77
2021/08/09 19:01:14;;;;;;;8.50;7.70;;;;;;;29.89;40.71;94689.78;821030;71;33494;-77
2021/08/09 19:16:18;;;;;;;9.67;8.67;;;;;;;29.68;42.96;94693.49;821226;71;32861;-77
2021/08/09 19:31:15;;;;;;;9.30;8.40;;;;;;;29.45;43.50;94693.42;821344;71;32908;-78
2021/08/09 19:46:14;;;;;;;9.50;8.20;;;;;;;29.23;46.39;94688.25;827469;71;32771;-77
2021/08/09 20:01:08;;;;;;;9.60;8.70;;;;;;;29.09;44.96;94697.24;828206;71;29719;-75
2021/08/09 20:16:14;;;;;;;11.60;10.33;;;;;;;28.96;43.04;94706.45;820536;71;33260;-74
2021/08/09 20:31:08;;;;;;;11.47;10.40;;;;;;;28.86;42.49;94723.53;828278;71;29375;-75
2021/08/09 20:46:08;;;;;;;13.03;10.20;;;;;;;28.70;42.68;94722.70;828492;71;29249;-75
2021/08/09 21:16:14;;;;;;;11.87;10.67;;;;;;;28.52;42.70;94728.84;827366;71;31906;-73
2021/08/09 21:31:12;;;;;;;10.77;9.73;;;;;;;28.49;42.91;94720.17;833972;71;30871;-74
2021/08/09 21:46:11;;;;;;;11.37;10.47;;;;;;;28.40;43.23;94716.55;834041;71;28930;-75
2021/08/09 22:01:14;;;;;;;11.20;10.20;;;;;;;28.34;43.36;94697.30;833808;71;31860;-76
2021/08/09 22:16:08;;;;;;;11.70;10.70;;;;;;;28.24;43.58;94694.69;828268;71;28392;-75
2021/08/09 22:31:11;;;;;;;11.20;10.20;;;;;;;28.09;43.98;94698.08;827973;71;29213;-76
2021/08/09 22:46:15;;;;;;;11.77;10.80;;;;;;;28.10;44.16;94690.16;827517;71;31781;-76
2021/08/09 23:01:08;;;;;;;12.00;10.80;;;;;;;28.05;44.22;94690.00;828212;71;29281;-75
2021/08/09 23:16:14;;;;;;;11.40;10.47;;;;;;;27.85;44.77;94691.05;827467;71;31740;-75
2021/08/09 23:31:13;;;;;;;11.33;10.30;;;;;;;27.86;44.65;94685.69;827985;71;31607;-76
2021/08/09 23:46:07;;;;;;;12.07;11.07;;;;;;;;;;828237;71;28457;-75
